Time;durP1;ratioP1;P1;durP2;ratioP2;P2;SDS_P1;SDS_P2;PMS_P1;PMS_P2;Temp;Humidity;BMP_temperature;BMP_pressure;BME280_temperature;BME280_humidity;BME280_pressure;Samples;Min_cycle;Max_cycle;Signal;HPM_P1;HPM_P2
2023/05/27 00:01:19;;;;;;;9.57;7.27;;;;;;;17.40;77.66;100592.80;1480452;88;21456;-81
2023/05/27 00:03:46;;;;;;;9.67;7.03;;;;;;;17.34;77.97;100587.70;1476681;88;22343;-81
2023/05/27 00:06:12;;;;;;;12.43;6.60;;;;;;;17.39;77.67;100595.17;1474195;88;21628;-82
2023/05/27 00:08:38;;;;;;;10.70;6.93;;;;;;;17.33;78.11;100593.56;1480102;88;21322;-81
2023/05/27 00:11:04;;;;;;;12.60;7.63;;;;;;;17.29;78.55;100590.95;1477123;88;22305;-83
2023/05/27 00:13:30;;;;;;;9.40;7.17;;;;;;;17.30;78.68;100591.27;1477727;88;22464;-79
2023/05/27 00:15:57;;;;;;;9.50;7.17;;;;;;;17.26;79.11;100587.80;1471702;88;21360;-79
2023/05/27 00:18:23;;;;;;;8.77;7.40;;;;;;;17.26;78.78;100593.15;1482175;88;21609;-81
2023/05/27 00:20:49;;;;;;;18.70;7.63;;;;;;;17.23;79.60;100592.19;1475024;88;22283;-81
2023/05/27 00:23:16;;;;;;;9.37;6.33;;;;;;;17.19;79.66;100593.59;1474568;88;22351;-79
2023/05/27 00:25:42;;;;;;;11.87;7.57;;;;;;;17.17;79.65;100590.27;1480543;88;21489;-82
2023/05/27 00:28:08;;;;;;;11.40;7.20;;;;;;;17.16;79.00;100588.11;1479685;88;21322;-81
2023/05/27 00:30:34;;;;;;;9.07;7.07;;;;;;;17.19;79.34;100589.58;1477879;88;21396;-80
2023/05/27 00:33:00;;;;;;;10.17;7.23;;;;;;;17.17;79.41;100583.58;1474303;88;21373;-80
2023/05/27 00:35:27;;;;;;;11.77;7.40;;;;;;;17.19;79.09;100585.57;1474914;88;21294;-79
2023/05/27 00:37:53;;;;;;;9.80;7.43;;;;;;;17.19;79.08;100589.58;1477884;88;21500;-81
2023/05/27 00:40:22;;;;;;;11.90;6.73;;;;;;;17.18;78.79;100587.42;1448912;88;22226;-80
2023/05/27 00:42:49;;;;;;;10.63;6.85;;;;;;;17.13;79.00;100585.29;1474007;88;22262;-81
2023/05/27 00:45:15;;;;;;;10.97;6.73;;;;;;;17.16;78.34;100585.95;1466898;88;21404;-80
2023/05/27 00:47:42;;;;;;;8.03;6.73;;;;;;;17.16;78.34;100587.28;1455242;88;21309;-80
2023/05/27 00:50:09;;;;;;;9.03;6.80;;;;;;;17.16;78.43;100588.62;1480932;88;21532;-79
2023/05/27 00:52:35;;;;;;;15.10;8.07;;;;;;;17.17;78.36;100594.28;1479636;88;21470;-80
2023/05/27 00:55:02;;;;;;;8.03;6.77;;;;;;;17.13;78.19;100595.98;1479258;88;21344;-80
2023/05/27 00:57:28;;;;;;;7.17;6.10;;;;;;;17.09;78.57;100592.05;1482718;88;21293;-78
2023/05/27 00:59:54;;;;;;;10.17;7.13;;;;;;;17.08;78.42;100589.03;1476561;88;21381;-81
2023/05/27 01:02:22;;;;;;;10.63;6.67;;;;;;;17.10;78.61;100589.67;1469154;88;21455;-83
2023/05/27 01:04:48;;;;;;;9.47;7.30;;;;;;;17.11;78.32;100591.33;1462226;88;22350;-84
2023/05/27 01:07:32;;;;;;;10.00;6.90;;;;;;;17.10;78.58;100592.35;1474621;88;21309;-84
2023/05/27 01:10:13;;;;;;;7.43;6.63;;;;;;;17.10;78.65;100592.35;1476706;88;21596;-83
2023/05/27 01:13:09;;;;;;;13.27;7.97;;;;;;;17.09;78.57;100596.05;1472371;88;21374;-84
2023/05/27 01:15:36;;;;;;;8.23;6.53;;;;;;;17.06;78.67;100592.90;1472627;88;21368;-84
2023/05/27 01:18:04;;;;;;;12.13;6.30;;;;;;;17.05;79.15;100592.08;1472270;88;21366;-84
2023/05/27 01:20:33;;;;;;;9.87;6.63;;;;;;;17.02;79.37;100594.30;1481680;88;21489;-84
2023/05/27 01:23:00;;;;;;;15.03;6.97;;;;;;;17.06;78.46;100589.74;1482946;88;22430;-83
2023/05/27 01:25:26;;;;;;;13.70;6.67;;;;;;;17.05;78.45;100593.41;1473952;88;21366;-83
2023/05/27 01:27:55;;;;;;;13.07;7.07;;;;;;;17.00;79.26;100582.44;1481460;88;21448;-84
2023/05/27 01:30:21;;;;;;;11.10;6.90;;;;;;;17.01;78.98;100588.12;1475541;88;21447;-83
2023/05/27 01:33:11;;;;;;;7.17;6.27;;;;;;;17.01;78.70;100585.45;1478217;88;21491;-84
2023/05/27 01:35:49;;;;;;;9.15;6.40;;;;;;;17.01;79.27;100586.79;1478328;88;21498;-83
2023/05/27 01:38:20;;;;;;;9.53;6.60;;;;;;;17.00;79.26;100585.63;1460068;89;21404;-83
2023/05/27 01:40:48;;;;;;;14.70;7.27;;;;;;;17.01;79.18;100580.62;1482541;88;21331;-83
2023/05/27 01:43:15;;;;;;;11.00;6.90;;;;;;;17.00;78.59;100581.61;1472007;88;21396;-81
2023/05/27 01:45:43;;;;;;;10.00;7.37;;;;;;;16.99;78.96;100580.79;1440766;88;21345;-82
2023/05/27 01:48:09;;;;;;;8.80;6.33;;;;;;;16.93;79.96;100582.87;1482417;88;21530;-81
2023/05/27 01:50:37;;;;;;;8.50;7.03;;;;;;;16.94;79.75;100573.83;1472738;88;21294;-84
2023/05/27 01:53:04;;;;;;;11.47;7.73;;;;;;;16.90;80.20;100575.22;1473226;88;21351;-83
2023/05/27 01:55:31;;;;;;;8.80;6.70;;;;;;;16.89;80.34;100576.25;1477875;88;21308;-84
2023/05/27 01:57:57;;;;;;;10.67;6.70;;;;;;;16.90;80.21;100577.90;1477978;88;21322;-83
2023/05/27 02:00:24;;;;;;;9.13;6.23;;;;;;;16.87;80.16;100578.27;1478077;88;21308;-82
2023/05/27 02:02:50;;;;;;;12.23;6.63;;;;;;;16.84;80.46;100569.28;1474525;88;21515;-83
2023/05/27 02:05:17;;;;;;;11.73;7.73;;;;;;;16.82;80.77;100569.45;1474846;88;22306;-83
2023/05/27 02:07:43;;;;;;;9.87;7.43;;;;;;;16.78;80.79;100571.37;1460656;88;21367;-83
2023/05/27 02:10:10;;;;;;;11.50;7.43;;;;;;;16.73;81.38;100571.88;1456648;88;21331;-83
2023/05/27 02:12:36;;;;;;;14.87;8.37;;;;;;;16.75;80.83;100576.54;1459698;89;22419;-82
2023/05/27 02:15:03;;;;;;;8.43;6.73;;;;;;;16.74;80.93;100576.70;1460131;89;21383;-83
2023/05/27 02:17:29;;;;;;;10.23;8.77;;;;;;;16.68;81.33;100576.42;1471005;88;21396;-83
2023/05/27 02:19:55;;;;;;;9.30;7.20;;;;;;;16.65;81.22;100576.80;1478373;88;21375;-83
2023/05/27 02:22:23;;;;;;;20.10;6.53;;;;;;;16.69;80.83;100581.29;1466572;88;22351;-82
2023/05/27 02:24:49;;;;;;;13.53;7.00;;;;;;;16.65;81.35;100573.30;1474876;88;21359;-83
2023/05/27 02:27:15;;;;;;;10.73;7.40;;;;;;;16.65;81.11;100579.47;1482987;88;21353;-82
2023/05/27 02:29:41;;;;;;;14.87;7.50;;;;;;;16.61;82.03;100575.52;1472597;88;21507;-84
2023/05/27 02:32:07;;;;;;;17.27;7.93;;;;;;;16.57;81.98;100571.56;1476316;88;21477;-82
2023/05/27 02:34:37;;;;;;;15.07;7.57;;;;;;;16.59;81.20;100576.19;1477874;88;21403;-83
2023/05/27 02:37:06;;;;;;;12.07;7.60;;;;;;;16.58;81.06;100575.06;1478408;88;21404;-83
2023/05/27 02:39:33;;;;;;;9.87;6.90;;;;;;;16.54;80.80;100578.58;1479554;88;22347;-83
2023/05/27 02:41:59;;;;;;;14.97;7.73;;;;;;;16.51;80.79;100586.96;1476943;88;21397;-82
2023/05/27 02:44:25;;;;;;;7.93;5.97;;;;;;;16.53;80.73;100590.80;1476315;88;21617;-82
2023/05/27 02:46:51;;;;;;;13.67;7.17;;;;;;;16.49;80.63;100578.83;1464284;88;22167;-81
2023/05/27 02:49:18;;;;;;;15.77;7.20;;;;;;;16.46;80.73;100585.36;1482027;88;21374;-83
2023/05/27 02:51:44;;;;;;;11.90;6.90;;;;;;;16.50;80.31;100591.99;1491744;88;21324;-81
2023/05/27 02:54:11;;;;;;;9.43;6.67;;;;;;;16.52;80.11;100585.14;1481310;88;21418;-82
2023/05/27 02:56:37;;;;;;;9.87;5.77;;;;;;;16.46;80.15;100582.19;1473473;88;22233;-82
2023/05/27 02:59:03;;;;;;;15.60;7.20;;;;;;;16.45;80.22;100584.51;1464126;88;21331;-82
2023/05/27 03:01:29;;;;;;;11.37;6.90;;;;;;;16.49;80.10;100593.02;1482034;88;21403;-81
2023/05/27 03:03:55;;;;;;;9.13;6.50;;;;;;;16.48;80.27;100584.66;1480053;88;21493;-83
2023/05/27 03:06:21;;;;;;;8.90;6.90;;;;;;;16.44;80.24;100588.72;1478056;88;21331;-83
2023/05/27 03:08:48;;;;;;;12.33;7.30;;;;;;;16.44;80.45;100592.72;1459917;88;21515;-83
2023/05/27 03:11:14;;;;;;;9.33;6.53;;;;;;;16.41;80.30;100586.41;1485627;88;22137;-80
2023/05/27 03:13:40;;;;;;;11.23;6.97;;;;;;;16.41;80.04;100593.09;1479006;88;21411;-80
2023/05/27 03:16:06;;;;;;;9.57;7.27;;;;;;;16.39;79.93;100594.59;1481599;88;21353;-81
2023/05/27 03:18:33;;;;;;;21.57;6.80;;;;;;;16.35;80.08;100593.81;1479720;88;21323;-81
2023/05/27 03:20:59;;;;;;;10.60;7.10;;;;;;;16.36;79.97;100595.47;1476405;88;21359;-80
2023/05/27 03:23:25;;;;;;;13.07;6.10;;;;;;;16.35;80.28;100596.48;1478813;88;21411;-80
2023/05/27 03:25:51;;;;;;;10.27;6.20;;;;;;;16.31;80.47;100589.83;1476701;88;22225;-80
2023/05/27 03:28:17;;;;;;;10.77;6.73;;;;;;;16.29;80.73;100590.54;1475486;88;21353;-80
2023/05/27 03:30:44;;;;;;;12.40;7.53;;;;;;;16.31;80.38;100592.50;1465513;88;21690;-80
2023/05/27 03:33:10;;;;;;;11.60;7.27;;;;;;;16.27;80.35;100592.04;1476433;88;21471;-80
2023/05/27 03:35:36;;;;;;;14.30;6.80;;;;;;;16.29;80.11;100597.22;1477276;88;21538;-79
2023/05/27 03:38:02;;;;;;;13.37;7.30;;;;;;;16.24;80.57;100599.91;1482345;88;21441;-80
2023/05/27 03:40:28;;;;;;;16.03;6.17;;;;;;;16.22;80.86;100599.24;1477232;88;21418;-81
2023/05/27 03:42:55;;;;;;;9.87;6.33;;;;;;;16.19;80.56;100590.27;1479688;88;22372;-80
2023/05/27 03:45:21;;;;;;;11.33;6.53;;;;;;;16.21;80.27;100600.27;1471168;88;22379;-82
2023/05/27 03:47:47;;;;;;;9.43;6.67;;;;;;;16.18;80.15;100604.63;1479081;88;21412;-83
2023/05/27 03:50:13;;;;;;;12.93;7.07;;;;;;;16.20;79.95;100597.28;1460721;88;21360;-83
2023/05/27 03:52:40;;;;;;;8.70;6.07;;;;;;;16.24;79.93;100609.25;1465121;89;21354;-82
2023/05/27 03:55:07;;;;;;;10.87;6.30;;;;;;;16.24;80.17;100600.41;1461227;89;21272;-83
2023/05/27 03:57:33;;;;;;;13.17;6.97;;;;;;;16.24;79.64;100603.91;1479221;88;21831;-81
2023/05/27 03:59:59;;;;;;;12.17;7.53;;;;;;;16.24;79.21;100609.25;1479129;88;22254;-81
2023/05/27 04:02:26;;;;;;;17.53;8.07;;;;;;;16.24;78.59;100619.94;1458620;88;21538;-82
2023/05/27 04:04:52;;;;;;;9.57;6.37;;;;;;;16.24;78.69;100613.77;1480302;88;21360;-81
2023/05/27 04:07:19;;;;;;;11.40;6.90;;;;;;;16.26;78.07;100611.75;1479953;88;21337;-80
2023/05/27 04:09:46;;;;;;;9.07;6.07;;;;;;;16.32;78.47;100612.88;1474651;88;21397;-81
2023/05/27 04:12:12;;;;;;;13.03;7.00;;;;;;;16.31;77.87;100612.02;1477045;88;21367;-82
2023/05/27 04:14:38;;;;;;;14.20;7.03;;;;;;;16.39;77.57;100613.80;1483076;88;21418;-82
2023/05/27 04:17:04;;;;;;;10.03;6.57;;;;;;;16.43;77.56;100613.78;1477962;88;22210;-81
2023/05/27 04:19:32;;;;;;;13.20;4.90;;;;;;;16.48;76.90;100612.70;1479698;88;21315;-81
2023/05/27 04:21:58;;;;;;;16.30;6.43;;;;;;;16.57;76.66;100612.98;1471685;88;22306;-81
2023/05/27 04:24:24;;;;;;;10.97;6.60;;;;;;;16.65;76.50;100612.87;1470507;88;21537;-81
2023/05/27 04:26:50;;;;;;;13.93;6.10;;;;;;;16.68;75.03;100618.35;1457996;88;21324;-79
2023/05/27 04:29:17;;;;;;;11.73;7.03;;;;;;;16.76;73.86;100616.12;1484458;88;22269;-80
2023/05/27 04:31:44;;;;;;;9.33;6.20;;;;;;;16.86;73.63;100620.70;1476945;88;21551;-80
2023/05/27 04:34:10;;;;;;;12.53;5.90;;;;;;;16.91;72.93;100631.16;1475695;88;22261;-80
2023/05/27 04:36:37;;;;;;;13.43;6.63;;;;;;;17.02;72.72;100628.55;1477902;88;21338;-81
2023/05/27 04:39:04;;;;;;;11.87;6.77;;;;;;;17.06;71.46;100626.32;1470928;88;21408;-81
2023/05/27 04:41:32;;;;;;;17.73;6.57;;;;;;;17.12;71.42;100625.09;1487361;88;21403;-80
2023/05/27 04:44:03;;;;;;;14.57;6.60;;;;;;;17.21;70.94;100637.03;1472813;88;21264;-81
2023/05/27 04:46:27;;;;;;;11.43;5.23;;;;;;;17.28;70.54;100640.61;1472761;88;21411;-82
2023/05/27 04:48:54;;;;;;;13.67;5.90;;;;;;;17.30;69.32;100631.90;1457703;88;21293;-81
2023/05/27 04:51:20;;;;;;;11.10;6.43;;;;;;;17.32;69.01;100636.53;1482985;88;21359;-82
2023/05/27 04:53:50;;;;;;;11.43;5.77;;;;;;;17.44;69.34;100640.41;1474035;88;21344;-81
2023/05/27 04:56:17;;;;;;;10.68;5.35;;;;;;;17.49;68.26;100634.48;1479766;88;21479;-80
2023/05/27 04:58:48;;;;;;;9.33;5.00;;;;;;;17.52;68.01;100630.09;1479457;88;21339;-80
2023/05/27 05:01:22;;;;;;;15.67;6.80;;;;;;;17.59;67.63;100635.85;1478861;88;21367;-83
2023/05/27 05:04:02;;;;;;;12.97;5.50;;;;;;;17.63;67.65;100642.98;1444657;89;21584;-83
2023/05/27 05:06:22;;;;;;;13.97;6.23;;;;;;;17.70;67.26;100633.72;1460146;88;21799;-80
2023/05/27 05:08:48;;;;;;;12.40;5.97;;;;;;;17.74;67.08;100645.69;1475821;88;21337;-82
2023/05/27 05:11:15;;;;;;;16.50;7.03;;;;;;;17.76;66.92;100645.82;1472330;88;21395;-82
2023/05/27 05:13:41;;;;;;;11.80;5.70;;;;;;;17.76;66.95;100643.66;1481979;88;21552;-82
2023/05/27 05:16:07;;;;;;;10.67;5.97;;;;;;;17.80;66.70;100642.28;1471202;88;21440;-80
2023/05/27 05:18:34;;;;;;;12.60;6.10;;;;;;;17.83;66.48;100644.58;1471497;88;22254;-90
2023/05/27 05:21:00;;;;;;;15.10;5.63;;;;;;;17.86;66.52;100640.18;1471696;88;21352;-87
2023/05/27 05:23:26;;;;;;;12.77;6.43;;;;;;;17.88;65.98;100644.84;1464517;88;21494;-85
2023/05/27 05:25:58;;;;;;;9.97;4.87;;;;;;;17.98;66.32;100640.50;1460022;88;21383;-88
2023/05/27 05:28:21;;;;;;;8.33;5.93;;;;;;;18.07;65.33;100638.52;1469312;89;21442;-88
2023/05/27 05:30:47;;;;;;;13.50;5.57;;;;;;;18.00;64.68;100635.28;1456998;89;21883;-86
2023/05/27 05:33:13;;;;;;;10.23;5.67;;;;;;;18.00;64.83;100641.97;1480281;88;21433;-88
2023/05/27 05:35:40;;;;;;;11.77;5.80;;;;;;;18.08;64.62;100645.56;1471617;88;22321;-88
2023/05/27 05:38:07;;;;;;;10.90;5.17;;;;;;;18.13;64.71;100647.16;1479011;88;21344;-89
2023/05/27 05:40:33;;;;;;;16.43;6.13;;;;;;;18.17;63.42;100645.23;1483167;88;21374;-87
2023/05/27 05:42:59;;;;;;;11.33;6.23;;;;;;;18.17;63.48;100645.23;1477076;88;22366;-87
2023/05/27 05:45:25;;;;;;;12.07;6.40;;;;;;;18.16;63.30;100652.95;1478878;88;21419;-89
2023/05/27 05:47:52;;;;;;;12.63;6.20;;;;;;;18.23;63.60;100655.69;1476823;88;21418;-86
2023/05/27 05:50:18;;;;;;;14.93;5.63;;;;;;;18.31;62.59;100662.77;1477881;88;21560;-87
2023/05/27 05:52:47;;;;;;;12.67;6.80;;;;;;;18.34;62.92;100663.20;1476730;88;21353;-88
2023/05/27 05:55:22;;;;;;;16.20;5.83;;;;;;;18.35;62.45;100662.17;1474274;88;21471;-87
2023/05/27 05:57:44;;;;;;;12.50;6.40;;;;;;;18.41;62.26;100661.43;1476206;88;22561;-88
2023/05/27 06:00:15;;;;;;;16.67;6.47;;;;;;;18.48;62.21;100660.96;1472709;88;21537;-91
2023/05/27 06:02:48;;;;;;;14.07;5.90;;;;;;;18.61;62.50;100664.77;1474760;88;21448;-86
2023/05/27 06:05:13;;;;;;;15.72;6.22;;;;;;;18.67;62.00;100659.95;1475734;88;21388;-87
2023/05/27 06:07:40;;;;;;;10.72;5.25;;;;;;;18.72;60.96;100664.23;1477866;88;21367;-87
2023/05/27 06:10:10;;;;;;;14.45;5.60;;;;;;;18.60;60.35;100671.16;1449902;89;21309;-87
2023/05/27 06:12:35;;;;;;;8.98;4.97;;;;;;;18.71;61.62;100667.95;1461017;88;21988;-87
2023/05/27 06:15:09;;;;;;;12.20;5.67;;;;;;;18.86;61.49;100666.53;1479452;88;21744;-84
2023/05/27 06:17:34;;;;;;;7.95;5.00;;;;;;;18.97;60.66;100667.84;1480133;88;21484;-86
2023/05/27 06:20:00;;;;;;;8.23;5.40;;;;;;;19.00;60.67;100663.42;1475938;88;22225;-85
2023/05/27 06:22:29;;;;;;;15.68;5.62;;;;;;;19.06;60.12;100669.34;1475771;88;21456;-83
2023/05/27 06:25:06;;;;;;;11.93;5.62;;;;;;;19.26;60.85;100681.01;1478538;88;21463;-88
2023/05/27 06:27:40;;;;;;;12.37;5.22;;;;;;;19.34;60.61;100680.85;1473633;88;21382;-87
2023/05/27 06:30:12;;;;;;;21.27;5.47;;;;;;;19.46;60.37;100676.26;1470305;88;21478;-87
2023/05/27 06:32:45;;;;;;;12.90;5.75;;;;;;;19.53;59.63;100679.78;1480249;88;21485;-87
2023/05/27 06:35:09;;;;;;;10.98;6.12;;;;;;;19.60;59.83;100675.28;1479321;88;22621;-86
2023/05/27 06:37:37;;;;;;;12.90;6.10;;;;;;;19.63;59.21;100678.91;1472394;88;21418;-86
2023/05/27 06:40:09;;;;;;;16.15;5.75;;;;;;;19.75;59.74;100678.66;1461413;88;21515;-86
2023/05/27 06:42:40;;;;;;;20.02;5.85;;;;;;;19.81;59.17;100679.20;1474952;88;22461;-86
2023/05/27 06:45:13;;;;;;;11.20;5.03;;;;;;;19.82;58.84;100677.34;1477774;88;21505;-83
2023/05/27 06:47:39;;;;;;;13.18;6.10;;;;;;;19.88;58.68;100676.55;1448800;89;21510;-86
2023/05/27 06:50:06;;;;;;;11.55;5.95;;;;;;;19.91;58.26;100680.66;1477893;88;21616;-84
2023/05/27 06:52:33;;;;;;;9.43;5.17;;;;;;;19.95;57.90;100675.22;1476153;88;21411;-85
2023/05/27 06:55:05;;;;;;;11.73;5.33;;;;;;;20.10;58.38;100674.52;1464729;88;21491;-85
2023/05/27 06:57:27;;;;;;;14.93;6.00;;;;;;;20.14;57.50;100681.16;1460384;88;22490;-85
2023/05/27 06:59:55;;;;;;;10.08;6.00;;;;;;;20.16;57.09;100680.93;1434977;90;21385;-87
2023/05/27 07:02:22;;;;;;;14.15;5.75;;;;;;;20.06;56.90;100683.50;1464079;89;21578;-86
2023/05/27 07:04:48;;;;;;;10.75;5.60;;;;;;;20.24;58.07;100681.56;1475103;88;21315;-84
2023/05/27 07:07:14;;;;;;;8.63;5.72;;;;;;;20.39;57.46;100671.95;1459633;88;21531;-86
2023/05/27 07:09:42;;;;;;;10.38;5.83;;;;;;;20.53;57.04;100673.34;1477773;88;21919;-85
2023/05/27 07:12:09;;;;;;;14.30;6.47;;;;;;;20.73;56.14;100680.89;1477084;88;21397;-86
2023/05/27 07:14:35;;;;;;;10.58;5.40;;;;;;;20.81;55.57;100681.20;1450064;89;21612;-86
2023/05/27 07:17:02;;;;;;;15.38;5.40;;;;;;;20.93;55.39;100678.17;1462446;88;21374;-84
2023/05/27 07:19:28;;;;;;;10.32;4.95;;;;;;;21.08;54.16;100676.06;1478546;88;21374;-86
2023/05/27 07:22:00;;;;;;;9.85;5.78;;;;;;;21.01;53.48;100681.99;1475113;88;21389;-85
2023/05/27 07:24:29;;;;;;;17.82;6.10;;;;;;;21.05;54.34;100681.05;1477757;88;21485;-84
2023/05/27 07:26:57;;;;;;;16.45;5.65;;;;;;;21.06;54.46;100676.81;1478125;88;21382;-86
2023/05/27 07:29:23;;;;;;;12.33;5.75;;;;;;;21.17;54.90;100680.17;1478192;88;21500;-85
2023/05/27 07:31:49;;;;;;;11.38;6.00;;;;;;;21.34;53.91;100677.85;1480535;88;21397;-86
2023/05/27 07:34:15;;;;;;;13.68;5.05;;;;;;;21.44;55.07;100673.94;1477185;88;22291;-85
2023/05/27 07:36:43;;;;;;;11.50;5.55;;;;;;;21.33;53.24;100680.25;1479996;88;22469;-85
2023/05/27 07:39:11;;;;;;;17.10;5.20;;;;;;;21.55;53.10;100671.41;1477061;88;21389;-83
2023/05/27 07:41:37;;;;;;;13.65;5.75;;;;;;;21.55;53.10;100665.02;1475767;88;21424;-85
2023/05/27 07:44:04;;;;;;;12.78;5.80;;;;;;;21.66;53.15;100665.02;1476062;88;22898;-83
2023/05/27 07:46:31;;;;;;;12.80;5.15;;;;;;;21.58;52.02;100665.59;1476618;88;21536;-84
2023/05/27 07:48:57;;;;;;;13.28;6.62;;;;;;;21.43;52.06;100681.16;1476719;88;22328;-86
2023/05/27 07:51:23;;;;;;;12.75;5.75;;;;;;;21.35;52.22;100667.94;1477060;88;21352;-86
2023/05/27 07:53:50;;;;;;;12.53;5.85;;;;;;;21.61;52.59;100661.12;1475018;88;21492;-83
2023/05/27 07:56:18;;;;;;;14.00;5.87;;;;;;;21.61;52.59;100661.12;1447483;89;21441;-84
2023/05/27 07:58:45;;;;;;;12.70;5.28;;;;;;;21.67;52.31;100668.04;1478311;88;21375;-86
2023/05/27 08:01:11;;;;;;;8.10;5.65;;;;;;;21.81;52.29;100666.93;1477241;88;21569;-86
2023/05/27 08:03:37;;;;;;;13.18;6.12;;;;;;;21.81;52.29;100666.93;1478396;88;21367;-85
2023/05/27 08:06:04;;;;;;;50.55;7.10;;;;;;;21.78;52.06;100662.80;1478840;88;22431;-84
2023/05/27 08:08:30;;;;;;;11.55;5.28;;;;;;;21.82;50.98;100661.84;1462673;88;21345;-83
2023/05/27 08:10:57;;;;;;;15.20;6.15;;;;;;;21.78;51.01;100661.94;1475479;88;22379;-86
2023/05/27 08:13:23;;;;;;;11.33;6.10;;;;;;;21.85;51.43;100666.79;1477614;88;21521;-86
2023/05/27 08:15:49;;;;;;;11.93;5.97;;;;;;;22.01;51.03;100668.98;1476749;88;21397;-86
2023/05/27 08:18:16;;;;;;;11.28;5.60;;;;;;;22.08;50.75;100670.27;1477248;88;21308;-85
2023/05/27 08:20:44;;;;;;;8.05;5.37;;;;;;;22.32;50.37;100663.81;1477116;88;21419;-86
2023/05/27 08:23:12;;;;;;;8.65;5.22;;;;;;;22.28;49.66;100667.48;1475489;88;21426;-86
2023/05/27 08:25:42;;;;;;;12.03;6.35;;;;;;;22.50;50.66;100670.11;1474506;88;22283;-84
2023/05/27 08:28:08;;;;;;;9.33;5.35;;;;;;;22.59;50.10;100672.00;1477559;88;21514;-86
2023/05/27 08:30:34;;;;;;;9.85;5.25;;;;;;;22.78;49.79;100663.41;1464804;88;22275;-83
2023/05/27 08:33:02;;;;;;;14.87;5.72;;;;;;;22.68;49.03;100663.10;1459926;89;22254;-85
2023/05/27 08:35:31;;;;;;;8.55;5.40;;;;;;;22.73;49.41;100660.58;1437873;88;21583;-84
2023/05/27 08:37:59;;;;;;;18.57;5.90;;;;;;;22.48;49.00;100657.36;1464631;88;21419;-83
2023/05/27 08:40:27;;;;;;;9.85;5.12;;;;;;;22.30;50.28;100655.96;1475033;88;21492;-86
2023/05/27 08:42:53;;;;;;;13.40;5.40;;;;;;;22.58;50.63;100665.47;1461269;88;22472;-85
2023/05/27 08:45:20;;;;;;;15.60;5.92;;;;;;;22.66;49.72;100659.80;1461531;88;21412;-85
2023/05/27 08:47:48;;;;;;;14.25;5.65;;;;;;;22.63;49.51;100658.89;1477031;88;21389;-86
2023/05/27 08:50:14;;;;;;;8.70;4.95;;;;;;;22.61;49.46;100655.05;1475784;88;22305;-85
2023/05/27 08:52:51;;;;;;;8.93;5.35;;;;;;;22.54;49.24;100654.30;1476249;88;21330;-86
2023/05/27 08:55:23;;;;;;;11.20;5.67;;;;;;;22.36;49.31;100657.77;1554379;88;21396;-83
2023/05/27 08:57:58;;;;;;;11.50;6.25;;;;;;;22.27;50.15;100662.61;1562173;88;21337;-83
2023/05/27 09:00:26;;;;;;;8.45;4.87;;;;;;;22.49;50.42;100660.87;1434701;89;22359;-84
2023/05/27 09:02:56;;;;;;;15.45;4.95;;;;;;;22.61;49.52;100665.02;1474671;88;21404;-86
2023/05/27 09:05:21;;;;;;;12.50;5.05;;;;;;;22.69;49.38;100659.34;1477013;88;21906;-84
2023/05/27 09:07:47;;;;;;;12.85;5.42;;;;;;;22.78;49.09;100659.36;1472955;88;21374;-86
2023/05/27 09:10:14;;;;;;;9.30;4.78;;;;;;;22.97;49.83;100653.50;1472862;88;21366;-86
2023/05/27 09:12:47;;;;;;;10.85;5.08;;;;;;;23.09;48.90;100660.33;1477513;88;22298;-85
2023/05/27 09:15:14;;;;;;;10.85;5.47;;;;;;;23.17;49.17;100661.39;1472706;88;21515;-84
2023/05/27 09:17:44;;;;;;;15.78;5.28;;;;;;;23.24;48.28;100662.12;1459111;89;22277;-85
2023/05/27 09:20:12;;;;;;;15.18;5.65;;;;;;;23.39;48.45;100654.98;1479647;87;21433;-85
2023/05/27 09:22:45;;;;;;;16.40;5.28;;;;;;;23.50;49.18;100654.75;1472235;88;21668;-85
2023/05/27 09:25:11;;;;;;;9.55;5.20;;;;;;;23.57;48.10;100646.05;1533242;88;21508;-84
2023/05/27 09:36:27;;;;;;;12.25;5.40;;;;;;;23.46;47.94;100648.98;1489587;88;22151;-87
2023/05/27 09:38:58;;;;;;;11.05;5.00;;;;;;;23.60;48.29;100648.30;1439031;88;21471;-84
2023/05/27 09:41:26;;;;;;;9.00;4.37;;;;;;;23.57;48.28;100640.66;1560881;88;21309;-83
2023/05/27 09:44:02;;;;;;;8.05;5.50;;;;;;;23.52;46.78;100644.55;1396527;93;21426;-83
2023/05/27 09:46:30;;;;;;;11.30;4.80;;;;;;;23.51;46.62;100645.62;1399445;88;21212;-83
2023/05/27 09:48:58;;;;;;;9.45;4.85;;;;;;;23.40;47.32;100652.07;1399078;88;22041;-84
2023/05/27 09:51:25;;;;;;;16.80;5.05;;;;;;;23.69;47.81;100648.27;1398654;88;21397;-83
2023/05/27 09:53:57;;;;;;;12.07;5.60;;;;;;;23.94;47.78;100643.27;1376794;90;21361;-82
2023/05/27 09:56:26;;;;;;;12.20;4.85;;;;;;;23.92;47.22;100638.64;1545787;89;22043;-82
2023/05/27 09:59:00;;;;;;;13.75;4.95;;;;;;;23.83;47.48;100630.84;1398609;88;22293;-84
2023/05/27 10:01:29;;;;;;;10.60;4.80;;;;;;;23.81;48.13;100630.25;1398512;88;21301;-84
2023/05/27 10:03:58;;;;;;;11.12;5.50;;;;;;;23.86;46.94;100639.84;1471798;88;22418;-83
2023/05/27 10:06:29;;;;;;;7.90;4.25;;;;;;;23.95;46.93;100630.88;1481306;88;21381;-84
2023/05/27 10:08:56;;;;;;;24.15;5.70;;;;;;;23.80;46.94;100635.36;1477454;88;21411;-85
2023/05/27 10:11:23;;;;;;;14.68;5.25;;;;;;;24.01;47.78;100634.54;1474097;88;21510;-85
2023/05/27 10:13:50;;;;;;;15.80;5.20;;;;;;;24.11;46.78;100634.81;1475661;88;22423;-83
2023/05/27 10:16:22;;;;;;;20.23;5.47;;;;;;;24.17;47.22;100637.94;1466656;88;21352;-85
2023/05/27 10:18:54;;;;;;;14.35;5.83;;;;;;;23.90;45.91;100638.03;1476572;88;21352;-85
2023/05/27 10:21:23;;;;;;;9.03;4.25;;;;;;;24.00;47.19;100627.50;1460904;88;21316;-84
2023/05/27 10:24:00;;;;;;;9.35;5.47;;;;;;;24.17;46.66;100627.63;1478683;88;22453;-84
2023/05/27 10:26:45;;;;;;;6.58;4.20;;;;;;;24.20;44.94;100634.77;1475106;88;21315;-83
2023/05/27 10:29:19;;;;;;;7.58;4.28;;;;;;;24.33;45.91;100637.77;1475335;88;21389;-85
2023/05/27 10:31:51;;;;;;;10.53;4.55;;;;;;;24.37;44.89;100633.55;1475377;88;22386;-82
2023/05/27 10:34:18;;;;;;;9.08;4.83;;;;;;;24.37;45.39;100628.65;1480523;88;21418;-85
2023/05/27 10:36:46;;;;;;;9.75;4.33;;;;;;;24.39;45.30;100635.48;1466383;88;21492;-84
2023/05/27 10:39:16;;;;;;;11.50;5.15;;;;;;;24.67;45.95;100638.88;1406024;88;21449;-84
2023/05/27 10:41:52;;;;;;;7.65;4.75;;;;;;;24.53;44.84;100633.41;1397341;88;21257;-89
2023/05/27 10:44:39;;;;;;;10.58;4.87;;;;;;;24.50;45.04;100629.28;1407012;88;21322;-85
2023/05/27 10:47:16;;;;;;;8.93;4.92;;;;;;;24.51;45.48;100625.55;1562207;88;22137;-90
2023/05/27 10:49:47;;;;;;;9.58;4.90;;;;;;;24.47;45.26;100628.94;1456067;88;21418;-86
2023/05/27 10:52:16;;;;;;;12.28;5.10;;;;;;;24.58;45.21;100628.66;1475585;88;21441;-85
2023/05/27 10:54:46;;;;;;;12.28;4.78;;;;;;;24.70;45.79;100614.59;1473480;88;21569;-87
2023/05/27 10:57:13;;;;;;;8.63;4.58;;;;;;;24.65;44.71;100615.28;1467284;88;21479;-87
2023/05/27 10:59:52;;;;;;;14.07;3.77;;;;;;;24.89;45.55;100613.93;1459889;89;21479;-89
2023/05/27 11:02:21;;;;;;;13.60;5.37;;;;;;;24.90;45.46;100614.21;1477980;88;21300;-89
2023/05/27 11:04:49;;;;;;;8.80;4.58;;;;;;;25.03;44.57;100609.91;1477113;88;22937;-87
2023/05/27 11:07:20;;;;;;;8.93;4.30;;;;;;;24.83;43.43;100606.73;1479957;88;21390;-87
2023/05/27 11:09:50;;;;;;;11.38;4.72;;;;;;;24.86;43.76;100606.26;1477582;88;21590;-85
2023/05/27 11:12:17;;;;;;;;;;;;;;;24.97;43.83;100605.41;1478228;88;21537;-88
2023/05/27 11:14:46;;;;;;;9.20;4.72;;;;;;;24.91;43.68;100611.78;1475505;88;20312;-88
2023/05/27 11:17:13;;;;;;;11.87;4.77;;;;;;;24.95;42.59;100605.67;1468486;88;21309;-87
2023/05/27 11:19:41;;;;;;;7.78;3.67;;;;;;;24.85;44.23;100604.62;1478249;88;21396;-86
2023/05/27 11:22:11;;;;;;;8.68;4.33;;;;;;;24.63;43.51;100616.58;1478775;88;21403;-88
2023/05/27 11:24:38;;;;;;;7.92;4.33;;;;;;;24.78;44.27;100613.41;1475760;88;21352;-90
2023/05/27 11:27:14;;;;;;;12.70;5.03;;;;;;;24.88;43.99;100606.85;1463594;88;21544;-90
2023/05/27 11:29:52;;;;;;;7.67;4.12;;;;;;;24.95;43.47;100610.27;1493596;88;21540;-86
2023/05/27 11:32:21;;;;;;;14.43;4.17;;;;;;;24.89;43.08;100609.87;1476557;88;21567;-88